PWSweather.com
Personal Weather Stations
Station Observations
BREEJEDURP
'sGravenzande, WestlandNL

'sGravenzandeWestlandNL

Lat: 52.00095260000001, Lon: 4.174256600000035

Elevation: 3

Station Type: Davis Vantage Pro2 Plus

www.breejedurp.nl

High Low Average
Temperature 47.1°F8.4°F 41.5°F5.3°F 45.3°F7.4°F
Dew Point 44.3°F6.8°F 37.4°F3.0°F 42.1°F5.6°F
Winds 11.0 mph -17.7 mph - 3.0 mph 4.8 mph 7.8 mph 12.6 mph
Wind Gusts 20.0 mph32.2 mph 4.0 mph6.4 mph 12.7 mph20.4 mph
Humidity 92% 85% 89%
Pressure 30.14 in1020.70 in 29.93 in1013.50 in -
Precipitation 0.00 in0.00 in - -
Hour Temp Dew Point Humidity Winds Wind Gusts Pressure Precip Precip Rate Daily Precip Total
12:04 AM 41.5°F5.3°C 37.4°F3.0°C 85% 6.0 mph W9.7 kmh W 9.0 mph14.5 kmh 30.14 in1020.7 mb 0.00 in0.0 mm 0.00 in0.0 mm 0.00 in0.0 mm
12:09 AM 41.5°F5.3°C 37.4°F3.0°C 85% 6.0 mph W9.7 kmh W 7.0 mph11.3 kmh 30.14 in1020.7 mb 0.00 in0.0 mm 0.00 in0.0 mm 0.00 in0.0 mm
01:59 AM 42.1°F5.6°C 38.8°F3.8°C 88% 3.0 mph W4.8 kmh W 4.0 mph6.4 kmh 30.13 in1020.3 mb 0.00 in0.0 mm 0.00 in0.0 mm 0.00 in0.0 mm
02:04 AM 42.3°F5.7°C 39.0°F3.9°C 88% 4.0 mph SW6.4 kmh SW 7.0 mph11.3 kmh 30.12 in1020.0 mb 0.00 in0.0 mm 0.00 in0.0 mm 0.00 in0.0 mm
02:09 AM 42.3°F5.7°C 39.0°F3.9°C 88% 4.0 mph SW6.4 kmh SW 8.0 mph12.9 kmh 30.12 in1020.0 mb 0.00 in0.0 mm 0.00 in0.0 mm 0.00 in0.0 mm
03:59 AM 43.9°F6.6°C 41.1°F5.1°C 90% 5.0 mph SSW8.0 kmh SSW 9.0 mph14.5 kmh 30.10 in1019.3 mb 0.00 in0.0 mm 0.00 in0.0 mm 0.00 in0.0 mm
04:04 AM 43.9°F6.6°C 41.1°F5.1°C 90% 5.0 mph SSW8.0 kmh SSW 9.0 mph14.5 kmh 30.10 in1019.3 mb 0.00 in0.0 mm 0.00 in0.0 mm 0.00 in0.0 mm
04:09 AM 43.9°F6.6°C 41.1°F5.1°C 90% 5.0 mph SW8.0 kmh SW 7.0 mph11.3 kmh 30.10 in1019.3 mb 0.00 in0.0 mm 0.00 in0.0 mm 0.00 in0.0 mm
05:59 AM 43.7°F6.5°C 41.5°F5.3°C 92% 8.0 mph W12.9 kmh W 11.0 mph17.7 kmh 30.09 in1019.0 mb 0.00 in0.0 mm 0.00 in0.0 mm 0.00 in0.0 mm
06:04 AM 43.5°F6.4°C 41.4°F5.2°C 92% 9.0 mph W14.5 kmh W 12.0 mph19.3 kmh 30.08 in1018.6 mb 0.00 in0.0 mm 0.00 in0.0 mm 0.00 in0.0 mm
06:09 AM 43.5°F6.4°C 41.4°F5.2°C 92% 10.0 mph W16.1 kmh W 14.0 mph22.5 kmh 30.09 in1019.0 mb 0.00 in0.0 mm 0.00 in0.0 mm 0.00 in0.0 mm
07:59 AM 44.8°F7.1°C 41.4°F5.2°C 88% 6.0 mph SSW9.7 kmh SSW 12.0 mph19.3 kmh 30.06 in1017.9 mb 0.00 in0.0 mm 0.00 in0.0 mm 0.00 in0.0 mm
08:04 AM 44.8°F7.1°C 41.4°F5.2°C 88% 8.0 mph WSW12.9 kmh WSW 11.0 mph17.7 kmh 30.06 in1017.9 mb 0.00 in0.0 mm 0.00 in0.0 mm 0.00 in0.0 mm
08:09 AM 44.8°F7.1°C 41.4°F5.2°C 88% 10.0 mph WSW16.1 kmh WSW 14.0 mph22.5 kmh 30.06 in1017.9 mb 0.00 in0.0 mm 0.00 in0.0 mm 0.00 in0.0 mm
09:59 AM 45.1°F7.3°C 41.5°F5.3°C 87% 9.0 mph W14.5 kmh W 15.0 mph24.1 kmh 30.06 in1017.9 mb 0.00 in0.0 mm 0.00 in0.0 mm 0.00 in0.0 mm
10:04 AM 45.3°F7.4°C 41.7°F5.4°C 87% 10.0 mph W16.1 kmh W 17.0 mph27.4 kmh 30.06 in1017.9 mb 0.00 in0.0 mm 0.00 in0.0 mm 0.00 in0.0 mm
10:09 AM 45.3°F7.4°C 41.7°F5.4°C 87% 9.0 mph WSW14.5 kmh WSW 17.0 mph27.4 kmh 30.06 in1017.9 mb 0.00 in0.0 mm 0.00 in0.0 mm 0.00 in0.0 mm
11:59 AM 46.0°F7.8°C 42.7°F5.9°C 88% 8.0 mph W12.9 kmh W 14.0 mph22.5 kmh 30.04 in1017.3 mb 0.00 in0.0 mm 0.00 in0.0 mm 0.00 in0.0 mm
12:04 PM 46.2°F7.9°C 42.6°F5.9°C 87% 8.0 mph W12.9 kmh W 17.0 mph27.4 kmh 30.05 in1017.6 mb 0.00 in0.0 mm 0.00 in0.0 mm 0.00 in0.0 mm
12:09 PM 46.2°F7.9°C 42.9°F6.1°C 88% 7.0 mph WSW11.3 kmh WSW 9.0 mph14.5 kmh 30.04 in1017.3 mb 0.00 in0.0 mm 0.00 in0.0 mm 0.00 in0.0 mm
01:59 PM 46.8°F8.2°C 43.4°F6.3°C 88% 6.0 mph SW9.7 kmh SW 11.0 mph17.7 kmh 30.01 in1016.3 mb 0.00 in0.0 mm 0.00 in0.0 mm 0.00 in0.0 mm
02:04 PM 46.9°F8.3°C 43.6°F6.4°C 88% 8.0 mph SW12.9 kmh SW 13.0 mph20.9 kmh 30.01 in1016.3 mb 0.00 in0.0 mm 0.00 in0.0 mm 0.00 in0.0 mm
02:09 PM 46.9°F8.3°C 43.6°F6.4°C 88% 11.0 mph W17.7 kmh W 17.0 mph27.4 kmh 30.01 in1016.3 mb 0.00 in0.0 mm 0.00 in0.0 mm 0.00 in0.0 mm
03:59 PM 47.1°F8.4°C 43.5°F6.4°C 87% 7.0 mph WSW11.3 kmh WSW 11.0 mph17.7 kmh 30.00 in1015.9 mb 0.00 in0.0 mm 0.00 in0.0 mm 0.00 in0.0 mm
04:04 PM 47.1°F8.4°C 43.5°F6.4°C 87% 8.0 mph W12.9 kmh W 12.0 mph19.3 kmh 30.00 in1015.9 mb 0.00 in0.0 mm 0.00 in0.0 mm 0.00 in0.0 mm
04:09 PM 46.9°F8.3°C 43.3°F6.3°C 87% 10.0 mph WSW16.1 kmh WSW 17.0 mph27.4 kmh 30.00 in1015.9 mb 0.00 in0.0 mm 0.00 in0.0 mm 0.00 in0.0 mm
05:59 PM 46.9°F8.3°C 43.3°F6.3°C 87% 7.0 mph W11.3 kmh W 13.0 mph20.9 kmh 29.99 in1015.6 mb 0.00 in0.0 mm 0.00 in0.0 mm 0.01 in0.3 mm
06:04 PM 46.9°F8.3°C 43.6°F6.4°C 88% 10.0 mph W16.1 kmh W 18.0 mph29.0 kmh 29.99 in1015.6 mb 0.00 in0.0 mm 0.00 in0.0 mm 0.01 in0.3 mm
06:09 PM 46.9°F8.3°C 43.6°F6.4°C 88% 11.0 mph SW17.7 kmh SW 20.0 mph32.2 kmh 29.99 in1015.6 mb 0.00 in0.0 mm 0.00 in0.0 mm 0.01 in0.3 mm
07:59 PM 46.6°F8.1°C 43.8°F6.6°C 90% 9.0 mph WSW14.5 kmh WSW 17.0 mph27.4 kmh 29.98 in1015.2 mb 0.00 in0.0 mm 0.00 in0.0 mm 0.01 in0.3 mm
08:04 PM 46.6°F8.1°C 43.8°F6.6°C 90% 11.0 mph SW17.7 kmh SW 16.0 mph25.7 kmh 29.98 in1015.2 mb 0.00 in0.0 mm 0.00 in0.0 mm 0.01 in0.3 mm
08:09 PM 46.6°F8.1°C 43.8°F6.6°C 90% 8.0 mph SSW12.9 kmh SSW 13.0 mph20.9 kmh 29.98 in1015.2 mb 0.00 in0.0 mm 0.00 in0.0 mm 0.01 in0.3 mm
09:59 PM 46.8°F8.2°C 44.3°F6.8°C 91% 11.0 mph SW17.7 kmh SW 15.0 mph24.1 kmh 29.96 in1014.6 mb 0.00 in0.0 mm 0.00 in0.0 mm 0.01 in0.3 mm
10:04 PM 46.9°F8.3°C 44.2°F6.8°C 90% 7.0 mph SW11.3 kmh SW 14.0 mph22.5 kmh 29.96 in1014.6 mb 0.00 in0.0 mm 0.00 in0.0 mm 0.01 in0.3 mm
10:09 PM 46.9°F8.3°C 44.2°F6.8°C 90% 8.0 mph SW12.9 kmh SW 13.0 mph20.9 kmh 29.95 in1014.2 mb 0.00 in0.0 mm 0.00 in0.0 mm 0.01 in0.3 mm
11:59 PM 46.6°F8.1°C 43.8°F6.6°C 90% 10.0 mph SW16.1 kmh SW 13.0 mph20.9 kmh 29.93 in1013.5 mb 0.00 in0.0 mm 0.00 in0.0 mm 0.01 in0.3 mm